Time;durP1;ratioP1;P1;durP2;ratioP2;P2;SDS_P1;SDS_P2;PMS_P1;PMS_P2;Temp;Humidity;BMP_temperature;BMP_pressure;BME280_temperature;BME280_humidity;BME280_pressure;Samples;Min_cycle;Max_cycle;Signal;HPM_P1;HPM_P2
2022/10/17 00:01:11;;;;;;;17.05;8.43;;;;;;;15.49;100.00;101283.78;5137759;27;20047;-59
2022/10/17 00:03:38;;;;;;;16.60;8.27;;;;;;;15.49;100.00;101281.13;5135236;27;20051;-60
2022/10/17 00:06:09;;;;;;;17.48;7.88;;;;;;;15.49;100.00;101285.63;5137037;27;20047;-59
2022/10/17 00:08:36;;;;;;;20.02;8.77;;;;;;;15.49;100.00;101282.97;5128611;27;20047;-59
2022/10/17 00:11:06;;;;;;;17.63;8.50;;;;;;;15.52;100.00;101285.31;5116949;28;20047;-60
2022/10/17 00:13:34;;;;;;;20.65;8.70;;;;;;;15.55;100.00;101285.78;5116803;28;20046;-59
2022/10/17 00:16:00;;;;;;;16.60;8.32;;;;;;;15.57;100.00;101279.41;5116753;28;20043;-59
2022/10/17 00:18:27;;;;;;;14.15;7.57;;;;;;;15.53;100.00;101279.78;5116291;28;20040;-59
2022/10/17 00:20:54;;;;;;;15.65;8.13;;;;;;;15.54;100.00;101275.25;5131623;27;20488;-59
2022/10/17 00:23:20;;;;;;;20.48;8.48;;;;;;;15.49;100.00;101270.41;5137039;27;20539;-59
2022/10/17 00:25:57;;;;;;;15.73;8.20;;;;;;;15.51;100.00;101276.41;5136769;27;20042;-59
2022/10/17 00:28:23;;;;;;;21.48;9.02;;;;;;;15.54;100.00;101273.41;5137035;27;20499;-59
2022/10/17 00:31:00;;;;;;;15.27;8.23;;;;;;;15.58;100.00;101273.06;5136938;27;20046;-59
2022/10/17 00:33:29;;;;;;;16.92;8.45;;;;;;;15.58;100.00;101265.88;5136415;27;20116;-59
2022/10/17 00:36:11;;;;;;;17.55;8.45;;;;;;;15.61;100.00;101275.38;5136568;27;20045;-59
2022/10/17 00:38:40;;;;;;;19.10;8.65;;;;;;;15.60;100.00;101284.44;5127858;27;20122;-59
2022/10/17 00:41:07;;;;;;;14.05;8.35;;;;;;;15.59;100.00;101283.59;5116326;27;20043;-59
2022/10/17 00:44:03;;;;;;;20.00;8.02;;;;;;;15.64;100.00;101283.06;5114411;28;20412;-59
2022/10/17 00:46:34;;;;;;;19.08;7.68;;;;;;;15.61;100.00;101286.94;5116156;27;20047;-59
2022/10/17 00:49:05;;;;;;;23.65;8.80;;;;;;;15.61;100.00;101281.59;5114401;28;20112;-59
2022/10/17 00:51:39;;;;;;;14.63;8.63;;;;;;;15.66;100.00;101278.38;5056160;28;20799;-59
2022/10/17 00:54:08;;;;;;;19.98;8.45;;;;;;;15.63;100.00;101278.75;5095671;28;20056;-60
2022/10/17 00:56:35;;;;;;;18.58;8.45;;;;;;;15.54;100.00;101270.75;5095215;28;20042;-59
2022/10/17 00:59:03;;;;;;;18.00;8.63;;;;;;;15.57;100.00;101271.41;5094419;28;20447;-59
2022/10/17 01:01:38;;;;;;;18.08;8.77;;;;;;;15.60;100.00;101274.56;5095261;28;20040;-59
2022/10/17 01:04:06;;;;;;;19.50;8.38;;;;;;;15.61;100.00;101273.56;5094291;28;20052;-59
2022/10/17 01:06:32;;;;;;;25.70;8.35;;;;;;;15.62;100.00;101269.84;5094605;28;20535;-59
2022/10/17 01:08:59;;;;;;;17.45;8.35;;;;;;;15.63;100.00;101265.38;5107150;28;20053;-59
2022/10/17 01:11:38;;;;;;;26.98;9.05;;;;;;;15.60;100.00;101263.84;5115411;28;20052;-59
2022/10/17 01:14:15;;;;;;;15.82;8.25;;;;;;;15.58;100.00;101271.22;5115942;28;20061;-59
2022/10/17 01:16:53;;;;;;;21.38;9.10;;;;;;;15.60;100.00;101269.22;5115327;28;20378;-60
2022/10/17 01:19:53;;;;;;;15.15;8.32;;;;;;;15.58;100.00;101265.06;5117085;27;20044;-59
2022/10/17 01:22:49;;;;;;;14.88;8.23;;;;;;;15.58;100.00;101265.88;5135787;27;20047;-59
2022/10/17 01:25:30;;;;;;;21.42;8.88;;;;;;;15.59;100.00;101272.06;5151730;27;20071;-59
2022/10/17 01:28:26;;;;;;;16.63;8.05;;;;;;;15.53;100.00;101279.78;5135998;27;20061;-59
2022/10/17 01:31:12;;;;;;;21.42;8.50;;;;;;;15.57;100.00;101280.25;5135566;27;20043;-59
2022/10/17 01:34:13;;;;;;;16.75;8.32;;;;;;;15.62;100.00;101277.88;5135698;27;20051;-59
2022/10/17 01:36:51;;;;;;;26.25;8.82;;;;;;;15.56;100.00;101275.91;5134332;27;20132;-60
2022/10/17 01:39:43;;;;;;;15.20;8.25;;;;;;;15.56;100.00;101273.25;5136945;27;20046;-59
2022/10/17 01:42:25;;;;;;;15.27;8.23;;;;;;;15.56;100.00;101281.25;5112904;28;20500;-60
2022/10/17 01:44:58;;;;;;;18.75;8.43;;;;;;;15.58;100.00;101273.91;5115182;28;20609;-59
2022/10/17 01:47:30;;;;;;;20.13;9.00;;;;;;;15.58;100.00;101265.88;5113523;28;20405;-59
2022/10/17 01:50:06;;;;;;;16.98;8.65;;;;;;;15.53;100.00;101269.09;5122343;27;20035;-60
2022/10/17 01:52:43;;;;;;;18.45;8.35;;;;;;;15.57;100.00;101260.69;5095904;27;20487;-59
2022/10/17 01:55:17;;;;;;;21.13;8.43;;;;;;;15.49;100.00;101257.06;5135606;27;20050;-60
2022/10/17 01:57:50;;;;;;;20.58;8.50;;;;;;;15.50;100.00;101244.53;5135139;27;20495;-59
2022/10/17 02:00:22;;;;;;;15.73;8.25;;;;;;;15.45;100.00;101254.91;5151328;27;20043;-59
2022/10/17 02:02:55;;;;;;;16.75;8.10;;;;;;;15.46;100.00;101257.41;5134555;27;20050;-59
2022/10/17 02:05:28;;;;;;;16.58;8.30;;;;;;;15.47;100.00;101247.56;5134179;27;20037;-60
2022/10/17 02:07:54;;;;;;;18.35;8.43;;;;;;;15.46;100.00;101237.84;5132392;27;20440;-59
2022/10/17 02:10:49;;;;;;;23.85;9.68;;;;;;;15.47;100.00;101237.69;5114341;28;20583;-59
2022/10/17 02:16:53;;;;;;;17.55;8.40;;;;;;;15.48;100.00;101239.38;5102848;27;20515;-60
2022/10/17 02:19:48;;;;;;;21.02;9.02;;;;;;;15.53;100.00;101236.16;5072193;28;20080;-60
2022/10/17 02:27:53;;;;;;;21.40;7.63;;;;;;;15.47;100.00;101250.22;5102755;27;20205;-60
2022/10/17 02:30:40;;;;;;;13.88;8.02;;;;;;;15.48;100.00;101251.88;5070742;28;20053;-60
2022/10/17 02:33:13;;;;;;;16.02;7.95;;;;;;;15.46;100.00;101248.53;5070390;28;20048;-60
2022/10/17 02:35:48;;;;;;;14.65;8.18;;;;;;;15.49;100.00;101245.53;5102911;28;20421;-59
2022/10/17 02:38:17;;;;;;;18.23;8.80;;;;;;;15.44;100.00;101245.22;5070380;28;20059;-59
2022/10/17 02:40:45;;;;;;;22.52;9.60;;;;;;;15.44;100.00;101237.19;5070443;28;20049;-59
2022/10/17 02:43:13;;;;;;;26.17;8.65;;;;;;;15.52;100.00;101245.19;5069763;28;20048;-61
2022/10/17 02:45:40;;;;;;;20.30;8.10;;;;;;;15.45;100.00;101242.38;5102813;28;20040;-59
2022/10/17 02:48:15;;;;;;;23.35;8.65;;;;;;;15.46;100.00;101243.19;5070472;28;20045;-59
2022/10/17 02:51:06;;;;;;;20.52;8.43;;;;;;;15.41;100.00;101243.72;5059860;28;20052;-61
2022/10/17 02:53:43;;;;;;;21.02;8.38;;;;;;;15.45;100.00;101253.06;5081190;28;20052;-59
2022/10/17 02:56:16;;;;;;;20.42;8.10;;;;;;;15.48;100.00;101259.91;5090221;28;20048;-59
2022/10/17 02:58:49;;;;;;;16.15;7.85;;;;;;;15.48;100.00;101257.22;5090223;28;20040;-59
2022/10/17 03:01:18;;;;;;;15.52;7.40;;;;;;;15.47;100.00;101251.03;5090053;28;20076;-60
2022/10/17 03:03:45;;;;;;;18.25;7.63;;;;;;;15.44;100.00;101245.22;5088715;28;20060;-60
2022/10/17 03:06:12;;;;;;;17.05;7.97;;;;;;;15.43;100.00;101247.06;5089143;28;20040;-60
2022/10/17 03:08:38;;;;;;;18.52;7.65;;;;;;;15.44;100.00;101256.72;5080223;28;20053;-60
2022/10/17 03:11:05;;;;;;;13.30;7.82;;;;;;;15.44;100.00;101250.56;5069517;28;20037;-60
2022/10/17 03:13:32;;;;;;;16.05;7.43;;;;;;;15.45;100.00;101255.75;5069725;28;20045;-60
2022/10/17 03:15:59;;;;;;;18.50;7.80;;;;;;;15.43;100.00;101256.94;5069552;28;20037;-60
2022/10/17 03:18:26;;;;;;;17.88;8.18;;;;;;;15.43;100.00;101246.25;5069274;28;20036;-60
2022/10/17 03:20:57;;;;;;;16.10;8.20;;;;;;;15.38;100.00;101243.25;5085246;28;20055;-60
2022/10/17 03:23:23;;;;;;;16.33;8.00;;;;;;;15.41;100.00;101237.53;5089438;28;20532;-60
2022/10/17 03:25:51;;;;;;;20.50;7.85;;;;;;;15.50;100.00;101245.38;5089392;28;20060;-60
2022/10/17 03:28:18;;;;;;;21.42;7.88;;;;;;;15.46;100.00;101248.53;5089698;28;20048;-60
2022/10/17 03:30:44;;;;;;;17.45;7.53;;;;;;;15.42;100.00;101249.91;5055188;28;20063;-60
2022/10/17 03:33:12;;;;;;;19.90;7.65;;;;;;;15.44;100.00;101251.38;5088537;28;20083;-60
2022/10/17 03:35:39;;;;;;;17.70;8.20;;;;;;;15.45;100.00;101252.25;5089278;28;20409;-60
2022/10/17 03:38:06;;;;;;;18.35;7.53;;;;;;;15.45;100.00;101254.91;5077840;28;20052;-60
2022/10/17 03:40:33;;;;;;;16.95;7.85;;;;;;;15.48;100.00;101260.75;5055986;28;20048;-60
2022/10/17 03:43:00;;;;;;;15.68;7.38;;;;;;;15.55;100.00;101259.06;5052974;28;20064;-60
2022/10/17 03:45:28;;;;;;;22.48;7.38;;;;;;;15.54;100.00;101265.38;5035888;28;20050;-60
2022/10/17 03:47:55;;;;;;;18.25;7.90;;;;;;;15.53;100.00;101268.22;5035708;28;20044;-60
2022/10/17 03:50:21;;;;;;;18.02;7.72;;;;;;;15.59;100.00;101270.22;5056495;28;20040;-60
2022/10/17 03:52:48;;;;;;;20.02;7.75;;;;;;;15.59;100.00;101266.69;5037570;28;20044;-60
2022/10/17 03:55:16;;;;;;;22.33;8.63;;;;;;;15.60;100.00;101266.53;5075572;28;20528;-60
2022/10/17 03:57:43;;;;;;;17.95;7.85;;;;;;;15.61;100.00;101270.03;5075648;28;20418;-60
2022/10/17 04:00:11;;;;;;;17.08;8.43;;;;;;;15.64;100.00;101275.03;5075503;28;20119;-60
2022/10/17 04:02:48;;;;;;;15.52;7.72;;;;;;;15.64;100.00;101269.69;5074814;28;20503;-60
2022/10/17 04:05:17;;;;;;;17.67;7.57;;;;;;;15.62;100.00;101269.84;5074351;28;20490;-60
2022/10/17 04:07:45;;;;;;;14.65;7.85;;;;;;;15.65;100.00;101280.22;5074058;28;20041;-60
2022/10/17 04:10:14;;;;;;;18.48;8.55;;;;;;;15.61;100.00;101272.72;5055345;28;20107;-60
2022/10/17 04:12:41;;;;;;;21.95;7.22;;;;;;;15.62;100.00;101277.06;5055037;28;20041;-60
2022/10/17 04:15:09;;;;;;;16.38;7.55;;;;;;;15.64;100.00;101286.56;5054969;28;20048;-60
2022/10/17 04:17:36;;;;;;;22.20;8.45;;;;;;;15.72;100.00;101283.03;5055342;28;20402;-60
2022/10/17 04:20:04;;;;;;;17.83;7.35;;;;;;;15.74;100.00;101287.22;5062546;28;20493;-60
2022/10/17 04:22:30;;;;;;;17.23;7.97;;;;;;;15.72;100.00;101286.53;5074926;28;20078;-60
2022/10/17 04:24:57;;;;;;;23.73;8.27;;;;;;;15.71;100.00;101292.06;5073764;28;20455;-60
2022/10/17 04:27:29;;;;;;;14.70;7.43;;;;;;;15.70;100.00;101287.72;5074501;28;20080;-60
2022/10/17 04:29:56;;;;;;;14.02;7.43;;;;;;;15.67;100.00;101282.72;5074970;28;20052;-60
2022/10/17 04:32:24;;;;;;;15.68;7.80;;;;;;;15.65;100.00;101282.06;5074316;28;20048;-60
2022/10/17 04:34:58;;;;;;;20.42;7.72;;;;;;;15.68;100.00;101279.03;5073302;28;20051;-60
2022/10/17 04:37:28;;;;;;;21.02;8.57;;;;;;;15.66;100.00;101281.91;5074679;28;20044;-60
2022/10/17 04:39:55;;;;;;;23.80;7.93;;;;;;;15.65;100.00;101279.41;5055267;28;20450;-60
2022/10/17 04:42:22;;;;;;;15.15;7.93;;;;;;;15.67;100.00;101282.72;5053107;28;20384;-60
2022/10/17 04:44:51;;;;;;;16.20;7.78;;;;;;;15.66;100.00;101283.72;5054377;28;20060;-60
2022/10/17 04:47:18;;;;;;;13.45;7.53;;;;;;;15.71;100.00;101292.06;5054702;28;20037;-60
2022/10/17 04:49:45;;;;;;;14.75;7.55;;;;;;;15.68;100.00;101290.56;5058714;28;20055;-60
2022/10/17 04:52:13;;;;;;;18.60;8.98;;;;;;;15.73;100.00;101295.38;5036089;28;20464;-60
2022/10/17 04:54:43;;;;;;;25.15;7.70;;;;;;;15.68;100.00;101289.72;5074424;28;20070;-60
2022/10/17 04:57:12;;;;;;;19.45;7.53;;;;;;;15.71;100.00;101303.56;5074432;28;20040;-60
2022/10/17 04:59:40;;;;;;;21.75;8.23;;;;;;;15.69;100.00;101288.72;5072747;28;20414;-60
2022/10/17 05:02:16;;;;;;;17.77;7.68;;;;;;;15.69;100.00;101299.44;5074388;28;20040;-61
2022/10/17 05:04:44;;;;;;;20.98;7.38;;;;;;;15.70;100.00;101309.13;5071757;28;20037;-62
2022/10/17 05:07:12;;;;;;;20.30;7.90;;;;;;;15.72;100.00;101304.44;5074218;28;20037;-62
2022/10/17 05:09:59;;;;;;;14.70;7.30;;;;;;;15.70;100.00;101301.09;5054159;28;20402;-60
2022/10/17 05:12:27;;;;;;;19.80;7.95;;;;;;;15.71;100.00;101303.56;5054012;28;20055;-60
2022/10/17 05:14:53;;;;;;;17.90;7.57;;;;;;;15.74;100.00;101299.78;5054216;28;20068;-60
2022/10/17 05:17:23;;;;;;;19.55;7.40;;;;;;;15.71;100.00;101308.94;5053827;28;20071;-60
2022/10/17 05:19:50;;;;;;;19.23;8.07;;;;;;;15.73;100.00;101308.75;5059932;28;20048;-60
2022/10/17 05:22:16;;;;;;;22.63;8.50;;;;;;;15.74;100.00;101311.31;5072665;28;20045;-59
2022/10/17 05:24:43;;;;;;;17.00;8.13;;;;;;;15.77;100.00;101302.13;5073688;28;20040;-60
2022/10/17 05:27:10;;;;;;;17.55;7.53;;;;;;;15.77;100.00;101304.78;5073337;28;20049;-60
2022/10/17 05:29:37;;;;;;;20.40;7.88;;;;;;;15.77;100.00;101303.94;5073200;28;20086;-60
2022/10/17 05:32:14;;;;;;;15.07;7.88;;;;;;;15.82;100.00;101310.41;5073593;28;20044;-61
2022/10/17 05:34:41;;;;;;;17.98;7.60;;;;;;;15.85;100.00;101311.94;5073157;28;20036;-61
2022/10/17 05:37:07;;;;;;;17.75;7.90;;;;;;;15.87;100.00;101308.06;5073830;28;20041;-60
2022/10/17 05:39:34;;;;;;;17.55;7.72;;;;;;;15.87;100.00;101315.25;5056854;28;20045;-61
2022/10/17 05:42:06;;;;;;;16.67;8.30;;;;;;;15.84;100.00;101315.59;5053346;28;20406;-61
2022/10/17 05:44:33;;;;;;;17.40;7.47;;;;;;;15.87;100.00;101320.59;5053103;28;20052;-61
2022/10/17 05:47:01;;;;;;;17.58;7.82;;;;;;;15.85;100.00;101323.44;5052847;28;20045;-61
2022/10/17 05:49:28;;;;;;;16.33;7.55;;;;;;;15.90;100.00;101322.94;5055967;28;20050;-61
2022/10/17 05:51:59;;;;;;;19.80;8.13;;;;;;;15.88;100.00;101331.16;5035050;28;20052;-61
2022/10/17 05:54:29;;;;;;;14.40;7.50;;;;;;;15.95;100.00;101341.13;5073072;28;20048;-60
2022/10/17 05:56:56;;;;;;;13.88;7.25;;;;;;;15.90;100.00;101341.66;5072351;28;20409;-61
2022/10/17 05:59:27;;;;;;;16.97;8.00;;;;;;;15.88;100.00;101341.00;5073352;28;20050;-61
2022/10/17 06:02:00;;;;;;;21.33;7.82;;;;;;;15.87;100.00;101342.00;5072585;28;20325;-60
2022/10/17 06:04:28;;;;;;;19.58;7.68;;;;;;;15.87;100.00;101356.22;5071924;28;20049;-60
2022/10/17 06:06:56;;;;;;;18.88;8.75;;;;;;;15.85;100.00;101355.56;5072711;28;20044;-60
2022/10/17 06:09:23;;;;;;;15.50;7.45;;;;;;;15.82;100.00;101347.88;5058138;28;20083;-60
2022/10/17 06:11:52;;;;;;;19.00;8.32;;;;;;;15.75;100.00;101352.25;5052876;28;20049;-60
2022/10/17 06:14:19;;;;;;;27.80;8.07;;;;;;;15.76;100.00;101369.16;5052805;28;20043;-60
2022/10/17 06:16:49;;;;;;;16.40;8.15;;;;;;;15.75;100.00;101360.28;5052980;28;20490;-60
2022/10/17 06:19:16;;;;;;;20.63;8.10;;;;;;;15.77;100.00;101365.44;5054214;28;20121;-60
2022/10/17 06:21:44;;;;;;;17.05;8.13;;;;;;;15.75;100.00;101365.63;5072519;28;20086;-60
2022/10/17 06:24:13;;;;;;;27.13;8.27;;;;;;;15.76;100.00;101375.31;5073055;28;20411;-60
2022/10/17 06:26:42;;;;;;;23.52;8.80;;;;;;;15.81;100.00;101374.78;5072134;28;20052;-60
2022/10/17 06:29:11;;;;;;;17.52;8.27;;;;;;;15.81;100.00;101366.75;5073218;28;20131;-60
2022/10/17 06:31:44;;;;;;;15.73;7.88;;;;;;;15.80;100.00;101370.47;5072699;28;20044;-60
2022/10/17 06:34:10;;;;;;;22.80;7.47;;;;;;;15.78;100.00;101372.47;5072584;28;20079;-60
2022/10/17 06:36:38;;;;;;;14.35;7.70;;;;;;;15.85;100.00;101368.09;5072957;28;20059;-60
2022/10/17 06:39:06;;;;;;;14.80;7.90;;;;;;;15.88;100.00;101371.28;5059184;28;20181;-60
2022/10/17 06:41:42;;;;;;;18.05;8.00;;;;;;;15.94;100.00;101377.75;5052944;28;20063;-60
2022/10/17 06:44:10;;;;;;;17.67;7.70;;;;;;;15.98;99.85;101378.25;5052090;28;20069;-60
2022/10/17 06:46:58;;;;;;;15.40;7.60;;;;;;;15.95;99.94;101378.59;5052702;28;20514;-60
2022/10/17 06:49:26;;;;;;;20.08;7.68;;;;;;;15.96;99.77;101378.41;5055030;28;20104;-60
2022/10/17 06:52:13;;;;;;;22.08;7.57;;;;;;;15.98;99.30;101389.78;5033324;28;20051;-60
2022/10/17 06:54:51;;;;;;;15.93;7.75;;;;;;;15.98;99.26;101386.28;5072081;28;20036;-61
2022/10/17 06:57:37;;;;;;;20.48;7.68;;;;;;;16.05;99.51;101392.59;5072685;28;20051;-60
2022/10/17 07:00:25;;;;;;;20.05;7.10;;;;;;;16.14;98.30;101396.91;5072138;28;20078;-60
2022/10/17 07:02:54;;;;;;;20.52;7.13;;;;;;;16.10;98.19;101396.44;5072687;28;20055;-60
2022/10/17 07:05:20;;;;;;;16.35;7.28;;;;;;;16.18;98.74;101398.22;5070092;28;20105;-60
2022/10/17 07:07:48;;;;;;;17.60;7.15;;;;;;;16.22;97.90;101402.22;5070112;28;20114;-60
2022/10/17 07:10:16;;;;;;;18.85;7.45;;;;;;;16.26;97.55;101400.00;5044196;28;20041;-60
2022/10/17 07:12:44;;;;;;;16.17;7.13;;;;;;;16.26;97.25;101405.38;5052748;28;20040;-60
2022/10/17 07:15:11;;;;;;;21.90;7.43;;;;;;;16.33;96.99;101408.19;5056097;28;20049;-60
2022/10/17 07:17:38;;;;;;;18.85;7.95;;;;;;;16.36;97.34;101413.19;5056375;28;20047;-60
2022/10/17 07:20:06;;;;;;;21.38;7.53;;;;;;;16.39;96.65;101408.31;5064193;28;20048;-60
2022/10/17 07:22:34;;;;;;;18.05;7.55;;;;;;;16.49;96.25;101406.25;5075858;28;20040;-60
2022/10/17 07:25:01;;;;;;;19.00;7.22;;;;;;;16.51;96.01;101411.41;5063246;28;20110;-60
2022/10/17 07:27:33;;;;;;;;;;;;;;;16.58;95.47;101414.22;5052489;28;20402;-62
2022/10/17 07:30:00;;;;;;;14.18;6.78;;;;;;;16.64;95.08;101411.66;5048485;28;19970;-62
2022/10/17 07:32:34;;;;;;;13.27;6.90;;;;;;;16.73;94.75;101422.34;5039608;28;20079;-63
2022/10/17 07:35:01;;;;;;;22.17;7.68;;;;;;;16.79;92.83;101425.16;5051473;28;20041;-63
2022/10/17 07:37:28;;;;;;;20.70;7.15;;;;;;;16.80;92.84;101426.78;5100843;28;20049;-61
2022/10/17 07:39:55;;;;;;;23.80;7.35;;;;;;;16.81;93.46;101417.75;5070776;28;20052;-62
2022/10/17 07:42:23;;;;;;;18.00;7.65;;;;;;;16.86;93.10;101423.44;5071257;28;20501;-62
2022/10/17 07:44:52;;;;;;;17.20;6.68;;;;;;;16.98;92.71;101420.34;5058266;28;20048;-63
2022/10/17 07:47:20;;;;;;;15.82;7.43;;;;;;;17.00;91.75;101416.47;5039773;28;20028;-62
2022/10/17 07:49:47;;;;;;;14.35;6.53;;;;;;;17.02;91.98;101410.94;5064200;28;20075;-61
2022/10/17 07:52:15;;;;;;;17.67;7.43;;;;;;;17.08;91.05;101411.03;5003849;28;20120;-62
2022/10/17 07:54:42;;;;;;;23.20;6.93;;;;;;;17.19;90.95;101417.81;5061089;28;20040;-61
2022/10/17 07:57:09;;;;;;;18.25;6.47;;;;;;;17.35;89.85;101416.00;5035933;28;20037;-62
2022/10/17 07:59:37;;;;;;;21.15;6.68;;;;;;;17.34;89.66;101428.56;5055589;28;20196;-62
2022/10/17 08:02:04;;;;;;;21.75;6.97;;;;;;;17.37;89.89;101436.28;5034907;28;20133;-62
2022/10/17 08:04:30;;;;;;;28.45;6.90;;;;;;;17.45;89.18;101443.41;5060344;28;20047;-63
2022/10/17 08:06:59;;;;;;;13.18;6.32;;;;;;;17.51;88.21;101442.66;5040110;28;20051;-62
2022/10/17 08:09:31;;;;;;;18.40;6.20;;;;;;;17.65;87.84;101438.34;5054549;28;20131;-62
2022/10/17 08:11:58;;;;;;;24.85;6.85;;;;;;;17.67;87.47;101440.84;5033901;28;20057;-63
2022/10/17 08:14:25;;;;;;;22.08;6.50;;;;;;;17.72;87.14;101455.38;5049579;28;20037;-63
2022/10/17 08:16:53;;;;;;;18.83;6.63;;;;;;;17.83;87.01;101470.19;5048081;28;20126;-63
2022/10/17 08:19:21;;;;;;;18.55;6.70;;;;;;;17.90;86.51;101470.28;5063671;28;20068;-62
2022/10/17 08:21:48;;;;;;;15.15;6.22;;;;;;;17.90;86.77;101489.06;5032416;28;20080;-62
2022/10/17 08:24:15;;;;;;;15.38;6.03;;;;;;;18.02;86.05;101490.28;5057581;28;20036;-63
2022/10/17 08:26:42;;;;;;;13.40;6.03;;;;;;;18.07;84.28;101489.75;5037413;28;20498;-63
2022/10/17 08:29:12;;;;;;;16.67;6.63;;;;;;;18.14;85.64;101470.00;5061441;28;20095;-62
2022/10/17 08:31:39;;;;;;;16.00;6.15;;;;;;;18.31;84.79;101470.63;5025914;28;20529;-61
2022/10/17 08:34:06;;;;;;;19.98;6.15;;;;;;;18.29;84.12;101477.22;5035373;28;20045;-62
2022/10/17 08:36:33;;;;;;;18.58;6.03;;;;;;;18.32;84.94;101490.25;5039064;28;20643;-61
2022/10/17 08:38:59;;;;;;;12.68;6.07;;;;;;;18.34;84.71;101489.06;5031723;28;20092;-58
2022/10/17 08:44:44;;;;;;;14.98;5.95;;;;;;;18.37;84.34;101491.41;5099760;27;20134;-58
2022/10/17 08:47:19;;;;;;;15.48;5.88;;;;;;;18.41;84.60;101495.38;5075112;28;20071;-57
2022/10/17 08:50:00;;;;;;;20.05;7.40;;;;;;;18.42;84.60;101505.06;5094431;28;20094;-58
2022/10/17 08:52:57;;;;;;;16.67;6.50;;;;;;;18.39;84.76;101499.25;5045863;28;20149;-58
2022/10/17 08:55:39;;;;;;;16.75;6.63;;;;;;;18.39;85.77;101494.72;5091717;28;20421;-58
2022/10/17 08:58:26;;;;;;;15.68;6.07;;;;;;;18.40;84.32;101493.69;5079230;28;20810;-57
2022/10/17 09:01:22;;;;;;;18.10;6.20;;;;;;;18.43;83.48;101505.94;5095581;28;20051;-58
2022/10/17 09:07:00;;;;;;;21.10;6.55;;;;;;;18.49;83.77;101501.66;5106582;27;20129;-56
2022/10/17 09:09:41;;;;;;;17.80;6.28;;;;;;;18.53;83.10;101506.44;5048034;28;20138;-57
2022/10/17 09:12:38;;;;;;;21.75;6.38;;;;;;;18.68;82.64;101516.34;5072786;28;20040;-57
2022/10/17 09:15:44;;;;;;;13.70;6.20;;;;;;;18.88;81.75;101521.97;5067480;28;20033;-56
2022/10/17 09:20:56;;;;;;;18.73;5.78;;;;;;;19.28;81.60;101525.91;5103412;27;20623;-56
2022/10/17 09:23:29;;;;;;;15.65;6.15;;;;;;;19.45;80.95;101522.97;5061158;28;20041;-56
2022/10/17 09:25:59;;;;;;;21.42;7.30;;;;;;;19.56;79.91;101525.13;5063929;28;20072;-56
2022/10/17 09:28:31;;;;;;;23.52;6.28;;;;;;;19.63;79.32;101525.16;5055217;28;20048;-57
2022/10/17 09:31:20;;;;;;;17.88;6.07;;;;;;;19.50;78.07;101533.94;5069481;28;20449;-57
2022/10/17 09:33:50;;;;;;;21.95;6.30;;;;;;;19.47;79.65;101535.19;5048167;28;20048;-58
2022/10/17 09:36:28;;;;;;;12.98;6.03;;;;;;;19.40;78.77;101530.78;5069406;28;20049;-59
2022/10/17 09:38:59;;;;;;;18.02;6.68;;;;;;;19.26;78.73;101540.56;5088503;28;20596;-59
2022/10/17 09:41:33;;;;;;;25.58;6.70;;;;;;;19.22;79.83;101533.91;5068692;28;20044;-57
2022/10/17 09:44:41;;;;;;;17.08;6.00;;;;;;;19.16;79.22;101541.72;5062940;28;20135;-58
2022/10/17 09:47:34;;;;;;;19.35;5.88;;;;;;;19.20;78.41;101546.72;5068027;28;20059;-58
2022/10/17 09:50:01;;;;;;;18.52;6.30;;;;;;;19.11;79.07;101546.00;5072669;28;20060;-58
2022/10/17 09:52:34;;;;;;;15.57;5.93;;;;;;;19.02;79.16;101555.22;4956927;28;20363;-57
2022/10/17 09:55:14;;;;;;;19.42;6.10;;;;;;;19.01;79.78;101557.09;5085217;28;20044;-58
2022/10/17 09:57:58;;;;;;;18.27;6.43;;;;;;;18.99;80.24;101551.03;5089111;28;20040;-57
2022/10/17 10:00:31;;;;;;;19.83;6.18;;;;;;;18.95;80.90;101555.97;5085147;28;20040;-57
2022/10/17 10:03:24;;;;;;;16.25;6.30;;;;;;;18.89;80.77;101558.59;5087575;28;20127;-57
2022/10/17 10:06:01;;;;;;;14.35;6.45;;;;;;;18.94;80.08;101559.69;5084514;28;20044;-57
2022/10/17 10:08:33;;;;;;;17.25;6.00;;;;;;;18.95;79.78;101557.81;5080627;28;20064;-57
2022/10/17 10:11:04;;;;;;;13.68;5.88;;;;;;;18.86;81.36;101567.84;5062492;28;20063;-57
2022/10/17 10:13:32;;;;;;;;;;;;;;;18.87;80.55;101566.00;5067913;28;20043;-57
2022/10/17 10:16:32;;;;;;;14.23;6.07;;;;;;;18.86;81.29;101565.16;5059501;28;19927;-57
2022/10/17 10:18:58;;;;;;;18.63;6.35;;;;;;;18.77;81.84;101561.75;5068042;28;20427;-57
2022/10/17 10:21:26;;;;;;;14.65;5.93;;;;;;;18.83;81.53;101562.88;5083223;28;20048;-58
2022/10/17 10:26:46;;;;;;;13.98;5.97;;;;;;;18.93;81.50;101571.44;5122063;27;20124;-57
2022/10/17 10:29:22;;;;;;;14.25;6.90;;;;;;;18.95;82.66;101569.41;5109846;28;20558;-57
2022/10/17 10:31:50;;;;;;;20.20;6.50;;;;;;;18.96;83.02;101573.75;5102731;28;20043;-57
2022/10/17 10:34:27;;;;;;;20.58;6.65;;;;;;;18.96;82.54;101583.69;5109287;28;20097;-57
2022/10/17 10:37:05;;;;;;;24.73;6.63;;;;;;;19.00;82.60;101587.66;5104917;28;20044;-57
2022/10/17 10:39:40;;;;;;;14.32;6.40;;;;;;;18.99;82.58;101602.13;5110819;28;20047;-57
2022/10/17 10:42:18;;;;;;;17.30;6.85;;;;;;;19.05;82.05;101614.00;5105918;28;20132;-57
2022/10/17 10:44:47;;;;;;;16.90;6.60;;;;;;;19.03;83.04;101616.88;5108992;28;20409;-56
2022/10/17 10:47:19;;;;;;;17.83;6.38;;;;;;;19.05;83.97;101627.44;5100788;28;20093;-57
2022/10/17 10:49:46;;;;;;;15.60;6.30;;;;;;;18.96;82.37;101632.09;5109812;28;20126;-58
2022/10/17 10:52:33;;;;;;;19.73;6.47;;;;;;;18.93;83.61;101627.91;4985174;28;20211;-58
2022/10/17 10:55:14;;;;;;;23.30;6.97;;;;;;;18.99;83.92;101621.78;5109299;28;20046;-57
2022/10/17 10:57:43;;;;;;;17.15;7.00;;;;;;;18.95;82.52;101633.91;5104106;28;20396;-57
2022/10/17 11:00:15;;;;;;;19.02;6.72;;;;;;;19.00;82.28;101628.00;5108474;28;20044;-57
2022/10/17 11:05:42;;;;;;;17.15;7.63;;;;;;;19.04;83.29;101613.16;5101299;27;20146;-57
2022/10/17 11:08:34;;;;;;;33.33;8.40;;;;;;;19.02;83.55;101604.44;5065655;28;20765;-57
2022/10/17 11:11:06;;;;;;;;;;;;;;;18.96;84.08;101586.38;5068594;28;20048;-57
2022/10/17 11:13:42;;;;;;;22.30;8.27;;;;;;;18.92;85.27;101579.72;5064744;28;20007;-59
2022/10/17 11:16:32;;;;;;;17.40;7.30;;;;;;;18.96;85.29;101589.91;5070145;28;20036;-58
2022/10/17 11:22:08;;;;;;;23.40;7.45;;;;;;;19.14;85.60;101596.72;5101458;27;20162;-56
2022/10/17 11:24:41;;;;;;;22.25;7.43;;;;;;;19.17;86.45;101601.69;5065866;28;20135;-58
2022/10/17 11:27:08;;;;;;;21.00;7.15;;;;;;;19.17;87.14;101616.00;5069555;28;20045;-56
2022/10/17 11:29:39;;;;;;;19.02;7.45;;;;;;;19.15;88.19;101623.41;5063362;28;20102;-57
2022/10/17 11:32:36;;;;;;;17.83;6.97;;;;;;;19.11;88.19;101634.75;5102780;28;20052;-57
2022/10/17 11:35:13;;;;;;;22.17;7.45;;;;;;;19.05;88.28;101630.13;5058425;28;20098;-57
2022/10/17 11:37:47;;;;;;;17.42;7.18;;;;;;;19.00;87.51;101636.06;5068853;28;20049;-57
2022/10/17 11:40:24;;;;;;;18.30;6.80;;;;;;;19.00;87.23;101636.06;5043102;28;20045;-57
2022/10/17 11:42:59;;;;;;;18.95;8.30;;;;;;;19.16;87.10;101641.22;5056399;28;20652;-57
2022/10/17 11:45:32;;;;;;;19.58;7.43;;;;;;;19.25;87.04;101633.88;5062975;28;20124;-57
2022/10/17 11:48:05;;;;;;;14.48;7.28;;;;;;;19.26;87.15;101637.38;5068774;28;20561;-57
2022/10/17 11:50:37;;;;;;;15.25;6.68;;;;;;;19.25;86.12;101651.88;5075805;28;20043;-57
2022/10/17 11:53:30;;;;;;;14.57;6.38;;;;;;;19.37;86.37;101648.50;5067427;28;20048;-56
2022/10/17 11:55:59;;;;;;;13.75;6.53;;;;;;;19.33;85.30;101646.38;5086892;28;20052;-58
2022/10/17 11:58:55;;;;;;;24.55;6.97;;;;;;;19.30;84.40;101654.81;5084624;28;20049;-58
2022/10/17 12:01:46;;;;;;;27.90;6.90;;;;;;;19.32;85.95;101658.16;5088406;28;20070;-58
2022/10/17 12:04:25;;;;;;;14.77;6.88;;;;;;;19.23;85.36;101656.59;5084898;28;20052;-58
2022/10/17 12:07:08;;;;;;;17.50;6.95;;;;;;;19.14;85.42;101654.03;5086051;28;20573;-58